Terminal Aerodrome Forecast
Issued by NWS Cleveland, OH

Home | Current Version | Previous Version | Graphics & Text | Print | Product List | Glossary On
Versions: 1 2 3 4 5 6 7 8 9 10 11 12 13 14 15 16 17 18 19 20
000
FTUS41 KCLE 262300
TAFERI
TAF
KERI 262321Z 2700/2724 25008KT P6SM OVC070
     FM270400 31005KT P6SM SCT070
     FM270800 29006KT P6SM OVC050
     FM271100 31006KT 4SM -SHRA BR OVC007
     FM271500 32008KT P6SM OVC015
     FM272100 29010KT P6SM OVC050=

USA.gov is the U.S. government's official web portal to all federal, state and local government web resources and services.